sensor_id;sensor_type;location;lat;lon;timestamp;pressure;altitude;pressure_sealevel;temperature;humidity
17764;BME280;22245;52.832;13.816;2023-07-31T00:00:20;100868.81;;;16.37;83.44
17764;BME280;22245;52.832;13.816;2023-07-31T00:03:43;100863.09;;;16.40;83.00
17764;BME280;22245;52.832;13.816;2023-07-31T00:07:05;100854.34;;;16.38;82.71
17764;BME280;22245;52.832;13.816;2023-07-31T00:10:27;100864.09;;;16.39;83.32
17764;BME280;22245;52.832;13.816;2023-07-31T00:13:48;100864.59;;;16.42;83.26
17764;BME280;22245;52.832;13.816;2023-07-31T00:17:10;100861.41;;;16.39;83.22
17764;BME280;22245;52.832;13.816;2023-07-31T00:20:33;100864.09;;;16.39;83.64
17764;BME280;22245;52.832;13.816;2023-07-31T00:23:54;100865.94;;;16.38;83.96
17764;BME280;22245;52.832;13.816;2023-07-31T00:27:16;100858.03;;;16.37;84.07
17764;BME280;22245;52.832;13.816;2023-07-31T00:30:37;100857.19;;;16.36;83.92
17764;BME280;22245;52.832;13.816;2023-07-31T00:33:59;100859.53;;;16.31;83.86
17764;BME280;22245;52.832;13.816;2023-07-31T00:37:23;100851.47;;;16.31;83.09
17764;BME280;22245;52.832;13.816;2023-07-31T00:40:44;100849.66;;;16.31;82.97
17764;BME280;22245;52.832;13.816;2023-07-31T00:44:06;100840.22;;;16.27;83.03
17764;BME280;22245;52.832;13.816;2023-07-31T00:47:27;100844.91;;;16.25;83.18
17764;BME280;22245;52.832;13.816;2023-07-31T00:50:50;100845.25;;;16.22;82.77
17764;BME280;22245;52.832;13.816;2023-07-31T00:54:13;100839.53;;;16.17;83.29
17764;BME280;22245;52.832;13.816;2023-07-31T00:57:36;100847.94;;;16.14;83.55
17764;BME280;22245;52.832;13.816;2023-07-31T01:00:59;100843.56;;;16.13;83.52
17764;BME280;22245;52.832;13.816;2023-07-31T01:04:21;100832.47;;;16.08;83.45
17764;BME280;22245;52.832;13.816;2023-07-31T01:07:50;100836.16;;;16.06;84.05
17764;BME280;22245;52.832;13.816;2023-07-31T01:11:17;100832.81;;;16.04;83.95
17764;BME280;22245;52.832;13.816;2023-07-31T01:14:51;100833.13;;;16.01;84.32
17764;BME280;22245;52.832;13.816;2023-07-31T01:18:12;100831.78;;;15.97;84.31
17764;BME280;22245;52.832;13.816;2023-07-31T01:21:56;100819.69;;;15.93;84.48
17764;BME280;22245;52.832;13.816;2023-07-31T01:25:35;100818.31;;;15.89;84.52
17764;BME280;22245;52.832;13.816;2023-07-31T01:29:06;100813.25;;;15.86;85.48
17764;BME280;22245;52.832;13.816;2023-07-31T01:32:28;100819.81;;;15.83;85.04
17764;BME280;22245;52.832;13.816;2023-07-31T01:35:51;100817.78;;;15.85;84.93
17764;BME280;22245;52.832;13.816;2023-07-31T01:39:13;100807.19;;;15.84;84.93
17764;BME280;22245;52.832;13.816;2023-07-31T01:42:35;100804.69;;;15.82;85.06
17764;BME280;22245;52.832;13.816;2023-07-31T01:45:58;100806.84;;;15.78;85.28
17764;BME280;22245;52.832;13.816;2023-07-31T01:49:20;100806.84;;;15.78;85.50
17764;BME280;22245;52.832;13.816;2023-07-31T01:52:42;100809.53;;;15.78;85.14
17764;BME280;22245;52.832;13.816;2023-07-31T01:56:04;100809.53;;;15.78;85.43
17764;BME280;22245;52.832;13.816;2023-07-31T01:59:26;100812.22;;;15.78;85.15
17764;BME280;22245;52.832;13.816;2023-07-31T02:02:50;100804.84;;;15.81;85.26
17764;BME280;22245;52.832;13.816;2023-07-31T02:06:12;100808.19;;;15.83;85.57
17764;BME280;22245;52.832;13.816;2023-07-31T02:09:33;100813.91;;;15.80;85.41
17764;BME280;22245;52.832;13.816;2023-07-31T02:12:55;100805.50;;;15.83;85.47
17764;BME280;22245;52.832;13.816;2023-07-31T02:16:17;100809.22;;;15.82;85.43
17764;BME280;22245;52.832;13.816;2023-07-31T02:19:40;100810.88;;;15.83;86.14
17764;BME280;22245;52.832;13.816;2023-07-31T02:23:02;100802.50;;;15.86;85.08
17764;BME280;22245;52.832;13.816;2023-07-31T02:26:24;100793.44;;;15.87;84.73
17764;BME280;22245;52.832;13.816;2023-07-31T02:29:45;100789.47;;;15.91;84.34
17764;BME280;22245;52.832;13.816;2023-07-31T02:33:07;100789.28;;;15.93;84.13
17764;BME280;22245;52.832;13.816;2023-07-31T02:36:30;100794.53;;;15.94;84.44
17764;BME280;22245;52.832;13.816;2023-07-31T02:39:52;100794.84;;;15.99;84.36
17764;BME280;22245;52.832;13.816;2023-07-31T02:43:14;100786.28;;;16.04;84.59
17764;BME280;22245;52.832;13.816;2023-07-31T02:46:35;100789.16;;;16.02;84.75
17764;BME280;22245;52.832;13.816;2023-07-31T02:49:57;100789.16;;;16.02;84.80
17764;BME280;22245;52.832;13.816;2023-07-31T02:53:21;100777.22;;;16.05;85.04
17764;BME280;22245;52.832;13.816;2023-07-31T02:56:43;100776.22;;;16.06;85.24
17764;BME280;22245;52.832;13.816;2023-07-31T03:00:06;100772.38;;;16.09;85.32
17764;BME280;22245;52.832;13.816;2023-07-31T03:03:30;100765.13;;;16.09;85.45
17764;BME280;22245;52.832;13.816;2023-07-31T03:06:52;100772.38;;;16.09;85.83
17764;BME280;22245;52.832;13.816;2023-07-31T03:10:15;100774.72;;;16.12;85.69
17764;BME280;22245;52.832;13.816;2023-07-31T03:13:37;100772.03;;;16.12;85.74
17764;BME280;22245;52.832;13.816;2023-07-31T03:16:59;100776.41;;;16.13;86.49
17764;BME280;22245;52.832;13.816;2023-07-31T03:20:20;100785.78;;;16.17;86.68
17764;BME280;22245;52.832;13.816;2023-07-31T03:23:43;100781.09;;;16.19;86.45
17764;BME280;22245;52.832;13.816;2023-07-31T03:27:06;100783.78;;;16.19;86.67
17764;BME280;22245;52.832;13.816;2023-07-31T03:30:29;100779.75;;;16.23;86.38
17764;BME280;22245;52.832;13.816;2023-07-31T03:33:50;100777.06;;;16.23;87.11
17764;BME280;22245;52.832;13.816;2023-07-31T03:37:11;100775.22;;;16.24;87.66
17764;BME280;22245;52.832;13.816;2023-07-31T03:40:33;100767.31;;;16.22;87.94
17764;BME280;22245;52.832;13.816;2023-07-31T03:43:56;100765.50;;;16.23;88.19
17764;BME280;22245;52.832;13.816;2023-07-31T03:47:17;100757.44;;;16.23;88.55
17764;BME280;22245;52.832;13.816;2023-07-31T03:50:39;100751.19;;;16.22;88.43
17764;BME280;22245;52.832;13.816;2023-07-31T03:54:00;100745.47;;;16.25;88.06
17764;BME280;22245;52.832;13.816;2023-07-31T03:57:21;100740.09;;;16.25;88.21
17764;BME280;22245;52.832;13.816;2023-07-31T04:00:45;100738.28;;;16.26;88.66
17764;BME280;22245;52.832;13.816;2023-07-31T04:04:07;100724.16;;;16.24;88.44
17764;BME280;22245;52.832;13.816;2023-07-31T04:07:28;100727.69;;;16.24;88.33
17764;BME280;22245;52.832;13.816;2023-07-31T04:10:50;100725.00;;;16.24;87.90
17764;BME280;22245;52.832;13.816;2023-07-31T04:14:11;100721.47;;;16.24;88.63
17764;BME280;22245;52.832;13.816;2023-07-31T04:17:34;100724.31;;;16.22;88.50
17764;BME280;22245;52.832;13.816;2023-07-31T04:20:57;100714.59;;;16.21;88.81
17764;BME280;22245;52.832;13.816;2023-07-31T04:24:19;100723.00;;;16.18;88.67
17764;BME280;22245;52.832;13.816;2023-07-31T04:27:44;100715.25;;;16.15;88.46
17764;BME280;22245;52.832;13.816;2023-07-31T04:31:05;100714.44;;;16.14;88.57
17764;BME280;22245;52.832;13.816;2023-07-31T04:34:29;100714.94;;;16.18;89.43
17764;BME280;22245;52.832;13.816;2023-07-31T04:37:50;100701.69;;;16.16;89.43
17764;BME280;22245;52.832;13.816;2023-07-31T04:41:12;100699.81;;;16.17;88.89
17764;BME280;22245;52.832;13.816;2023-07-31T04:44:33;100705.84;;;16.19;89.99
17764;BME280;22245;52.832;13.816;2023-07-31T04:47:54;100705.69;;;16.20;89.77
17764;BME280;22245;52.832;13.816;2023-07-31T04:51:17;100699.81;;;16.25;89.83
17764;BME280;22245;52.832;13.816;2023-07-31T04:54:39;100705.69;;;16.29;89.85
17764;BME280;22245;52.832;13.816;2023-07-31T04:58:00;100709.22;;;16.29;89.57
17764;BME280;22245;52.832;13.816;2023-07-31T05:01:22;100714.94;;;16.34;89.78
17764;BME280;22245;52.832;13.816;2023-07-31T05:04:44;100703.31;;;16.34;89.27
17764;BME280;22245;52.832;13.816;2023-07-31T05:08:07;100701.66;;;16.33;89.74
17764;BME280;22245;52.832;13.816;2023-07-31T05:11:29;100697.94;;;16.34;90.36
17764;BME280;22245;52.832;13.816;2023-07-31T05:14:51;100698.47;;;16.38;89.90
17764;BME280;22245;52.832;13.816;2023-07-31T05:18:12;100690.72;;;16.43;89.93
17764;BME280;22245;52.832;13.816;2023-07-31T05:21:34;100692.41;;;16.44;90.15
17764;BME280;22245;52.832;13.816;2023-07-31T05:24:57;100692.88;;;16.47;89.86
17764;BME280;22245;52.832;13.816;2023-07-31T05:28:18;100693.72;;;16.48;90.77
17764;BME280;22245;52.832;13.816;2023-07-31T05:31:40;100681.63;;;16.52;91.27
17764;BME280;22245;52.832;13.816;2023-07-31T05:35:03;100681.94;;;16.57;90.69
17764;BME280;22245;52.832;13.816;2023-07-31T05:38:24;100683.63;;;16.58;90.69
17764;BME280;22245;52.832;13.816;2023-07-31T05:41:47;100672.34;;;16.63;90.50
17764;BME280;22245;52.832;13.816;2023-07-31T05:45:10;100675.38;;;16.68;90.36
17764;BME280;22245;52.832;13.816;2023-07-31T05:48:31;100675.19;;;16.70;90.25
17764;BME280;22245;52.832;13.816;2023-07-31T05:51:54;100675.69;;;16.73;90.48
17764;BME280;22245;52.832;13.816;2023-07-31T05:55:16;100676.84;;;16.79;90.62
17764;BME280;22245;52.832;13.816;2023-07-31T05:58:39;100673.09;;;16.88;90.58
17764;BME280;22245;52.832;13.816;2023-07-31T06:02:03;100679.16;;;16.90;89.58
17764;BME280;22245;52.832;13.816;2023-07-31T06:05:25;100678.78;;;16.93;89.41
17764;BME280;22245;52.832;13.816;2023-07-31T06:08:50;100691.75;;;16.98;89.87
17764;BME280;22245;52.832;13.816;2023-07-31T06:12:11;100695.28;;;16.99;89.89
17764;BME280;22245;52.832;13.816;2023-07-31T06:15:35;100693.91;;;17.03;90.21
17764;BME280;22245;52.832;13.816;2023-07-31T06:18:57;100696.28;;;17.06;90.25
17764;BME280;22245;52.832;13.816;2023-07-31T06:22:19;100682.47;;;17.09;89.86
17764;BME280;22245;52.832;13.816;2023-07-31T06:25:40;100680.78;;;17.08;89.24
17764;BME280;22245;52.832;13.816;2023-07-31T06:29:02;100686.84;;;17.10;89.29
17764;BME280;22245;52.832;13.816;2023-07-31T06:32:25;100692.88;;;17.12;90.13
17764;BME280;22245;52.832;13.816;2023-07-31T06:35:48;100692.69;;;17.14;89.30
17764;BME280;22245;52.832;13.816;2023-07-31T06:39:09;100684.25;;;17.17;89.58
17764;BME280;22245;52.832;13.816;2023-07-31T06:42:31;100686.59;;;17.20;89.81
17764;BME280;22245;52.832;13.816;2023-07-31T06:45:53;100674.31;;;17.26;90.13
17764;BME280;22245;52.832;13.816;2023-07-31T06:49:16;100675.81;;;17.28;89.35
17764;BME280;22245;52.832;13.816;2023-07-31T06:52:38;100674.44;;;17.32;90.20
17764;BME280;22245;52.832;13.816;2023-07-31T06:56:00;100671.19;;;17.37;90.32
17764;BME280;22245;52.832;13.816;2023-07-31T07:03:06;100673.50;;;17.48;90.39
17764;BME280;22245;52.832;13.816;2023-07-31T07:06:31;100669.44;;;17.53;89.81
17764;BME280;22245;52.832;13.816;2023-07-31T07:09:59;100673.25;;;17.58;89.82
17764;BME280;22245;52.832;13.816;2023-07-31T07:13:23;100668.34;;;17.62;88.17
17764;BME280;22245;52.832;13.816;2023-07-31T07:16:52;100665.78;;;17.69;89.40
17764;BME280;22245;52.832;13.816;2023-07-31T07:20:16;100657.50;;;17.70;89.80
17764;BME280;22245;52.832;13.816;2023-07-31T07:23:43;100657.63;;;17.77;90.32
17764;BME280;22245;52.832;13.816;2023-07-31T07:27:09;100650.34;;;17.86;89.63
17764;BME280;22245;52.832;13.816;2023-07-31T07:30:32;100645.03;;;17.92;89.48
17764;BME280;22245;52.832;13.816;2023-07-31T07:33:58;100647.72;;;18.01;89.89
17764;BME280;22245;52.832;13.816;2023-07-31T07:37:21;100641.38;;;18.08;89.78
17764;BME280;22245;52.832;13.816;2023-07-31T07:40:46;100639.94;;;18.21;88.16
17764;BME280;22245;52.832;13.816;2023-07-31T07:44:12;100641.25;;;18.25;87.65
17764;BME280;22245;52.832;13.816;2023-07-31T07:47:40;100631.75;;;18.29;87.25
17764;BME280;22245;52.832;13.816;2023-07-31T07:51:04;100639.28;;;18.34;86.26
17764;BME280;22245;52.832;13.816;2023-07-31T07:54:27;100632.69;;;18.36;85.40
17764;BME280;22245;52.832;13.816;2023-07-31T07:57:51;100633.97;;;18.41;84.96
17764;BME280;22245;52.832;13.816;2023-07-31T08:01:13;100631.94;;;18.43;85.64
17764;BME280;22245;52.832;13.816;2023-07-31T08:04:36;100635.47;;;18.43;84.85
17764;BME280;22245;52.832;13.816;2023-07-31T08:07:59;100631.13;;;18.42;84.74
17764;BME280;22245;52.832;13.816;2023-07-31T08:11:22;100628.97;;;18.37;84.86
17764;BME280;22245;52.832;13.816;2023-07-31T08:14:46;100632.69;;;18.36;85.24
17764;BME280;22245;52.832;13.816;2023-07-31T08:18:07;100626.09;;;18.39;85.35
17764;BME280;22245;52.832;13.816;2023-07-31T08:21:29;100619.94;;;18.45;84.40
17764;BME280;22245;52.832;13.816;2023-07-31T08:24:51;100616.63;;;18.43;84.85
17764;BME280;22245;52.832;13.816;2023-07-31T08:28:12;100616.41;;;18.45;85.13
17764;BME280;22245;52.832;13.816;2023-07-31T08:31:36;100615.00;;;18.49;85.48
17764;BME280;22245;52.832;13.816;2023-07-31T08:34:57;100611.28;;;18.50;85.75
17764;BME280;22245;52.832;13.816;2023-07-31T08:38:19;100611.75;;;18.54;85.64
17764;BME280;22245;52.832;13.816;2023-07-31T08:41:41;100613.81;;;18.51;84.95
17764;BME280;22245;52.832;13.816;2023-07-31T08:45:04;100610.91;;;18.53;85.36
17764;BME280;22245;52.832;13.816;2023-07-31T08:48:28;100600.97;;;18.54;85.71
17764;BME280;22245;52.832;13.816;2023-07-31T08:51:52;100595.69;;;18.60;86.41
17764;BME280;22245;52.832;13.816;2023-07-31T08:55:14;100589.91;;;18.63;84.02
17764;BME280;22245;52.832;13.816;2023-07-31T08:58:37;100583.22;;;18.59;83.55
17764;BME280;22245;52.832;13.816;2023-07-31T09:02:05;100588.03;;;18.64;83.43
17764;BME280;22245;52.832;13.816;2023-07-31T09:05:30;100587.84;;;18.65;84.36
17764;BME280;22245;52.832;13.816;2023-07-31T09:08:52;100592.88;;;18.69;83.99
17764;BME280;22245;52.832;13.816;2023-07-31T09:12:14;100592.56;;;18.78;83.85
17764;BME280;22245;52.832;13.816;2023-07-31T09:15:35;100591.34;;;18.81;84.30
17764;BME280;22245;52.832;13.816;2023-07-31T09:18:59;100591.81;;;18.85;82.10
17764;BME280;22245;52.832;13.816;2023-07-31T09:22:35;100598.88;;;18.86;80.71
17764;BME280;22245;52.832;13.816;2023-07-31T09:25:57;100599.28;;;18.83;79.49
17764;BME280;22245;52.832;13.816;2023-07-31T09:29:20;100595.44;;;18.77;79.67
17764;BME280;22245;52.832;13.816;2023-07-31T09:32:42;100584.41;;;18.72;80.87
17764;BME280;22245;52.832;13.816;2023-07-31T09:36:04;100594.44;;;18.78;82.08
17764;BME280;22245;52.832;13.816;2023-07-31T09:39:27;100592.63;;;18.85;80.77
17764;BME280;22245;52.832;13.816;2023-07-31T09:42:50;100596.38;;;18.84;81.32
17764;BME280;22245;52.832;13.816;2023-07-31T09:46:13;100598.03;;;18.85;82.79
17764;BME280;22245;52.832;13.816;2023-07-31T09:49:35;100587.19;;;18.78;82.46
17764;BME280;22245;52.832;13.816;2023-07-31T09:52:56;100590.06;;;18.77;84.24
17764;BME280;22245;52.832;13.816;2023-07-31T09:56:21;100590.69;;;18.79;83.97
17764;BME280;22245;52.832;13.816;2023-07-31T09:59:44;100585.13;;;18.80;83.78
17764;BME280;22245;52.832;13.816;2023-07-31T10:03:08;100575.81;;;18.83;83.84
17764;BME280;22245;52.832;13.816;2023-07-31T10:06:30;100573.75;;;18.85;82.33
17764;BME280;22245;52.832;13.816;2023-07-31T10:09:54;100570.63;;;18.82;81.56
17764;BME280;22245;52.832;13.816;2023-07-31T10:13:19;100569.97;;;18.79;81.35
17764;BME280;22245;52.832;13.816;2023-07-31T10:16:42;100562.69;;;18.80;81.43
17764;BME280;22245;52.832;13.816;2023-07-31T10:20:06;100562.31;;;18.83;82.94
17764;BME280;22245;52.832;13.816;2023-07-31T10:23:29;100572.47;;;18.81;82.97
17764;BME280;22245;52.832;13.816;2023-07-31T10:26:53;100574.34;;;18.80;83.81
17764;BME280;22245;52.832;13.816;2023-07-31T10:30:17;100572.66;;;18.79;83.78
17764;BME280;22245;52.832;13.816;2023-07-31T10:33:40;100560.38;;;18.77;83.82
17764;BME280;22245;52.832;13.816;2023-07-31T10:37:21;100560.38;;;18.77;85.03
17764;BME280;22245;52.832;13.816;2023-07-31T10:40:43;100560.38;;;18.77;84.02
17764;BME280;22245;52.832;13.816;2023-07-31T10:44:07;100563.84;;;18.71;84.92
17764;BME280;22245;52.832;13.816;2023-07-31T10:47:30;100555.09;;;18.69;85.42
17764;BME280;22245;52.832;13.816;2023-07-31T10:50:54;100562.16;;;18.70;86.52
17764;BME280;22245;52.832;13.816;2023-07-31T10:54:16;100549.88;;;18.67;86.46
17764;BME280;22245;52.832;13.816;2023-07-31T10:57:39;100547.84;;;18.69;88.14
17764;BME280;22245;52.832;13.816;2023-07-31T11:01:02;100541.88;;;18.74;86.54
17764;BME280;22245;52.832;13.816;2023-07-31T11:04:26;100544.41;;;18.75;86.78
17764;BME280;22245;52.832;13.816;2023-07-31T11:07:49;100547.53;;;18.79;88.29
17764;BME280;22245;52.832;13.816;2023-07-31T11:11:13;100534.94;;;18.86;87.90
17764;BME280;22245;52.832;13.816;2023-07-31T11:14:34;100539.97;;;18.89;86.66
17764;BME280;22245;52.832;13.816;2023-07-31T11:17:56;100528.13;;;18.90;86.04
17764;BME280;22245;52.832;13.816;2023-07-31T11:21:21;100531.69;;;18.91;86.30
17764;BME280;22245;52.832;13.816;2023-07-31T11:24:43;100529.56;;;18.86;86.50
17764;BME280;22245;52.832;13.816;2023-07-31T11:28:07;100531.47;;;18.92;86.93
17764;BME280;22245;52.832;13.816;2023-07-31T11:31:28;100531.81;;;18.98;86.87
17764;BME280;22245;52.832;13.816;2023-07-31T11:34:51;100517.53;;;19.04;84.46
17764;BME280;22245;52.832;13.816;2023-07-31T11:38:22;100528.97;;;19.06;85.05
17764;BME280;22245;52.832;13.816;2023-07-31T11:41:45;100512.53;;;19.01;84.40
17764;BME280;22245;52.832;13.816;2023-07-31T11:45:08;100508.66;;;19.10;84.31
17764;BME280;22245;52.832;13.816;2023-07-31T11:48:32;100520.84;;;19.28;85.83
17764;BME280;22245;52.832;13.816;2023-07-31T11:51:56;100511.72;;;19.29;81.14
17764;BME280;22245;52.832;13.816;2023-07-31T11:55:19;100507.22;;;19.36;81.61
17764;BME280;22245;52.832;13.816;2023-07-31T11:58:41;100492.31;;;19.40;80.94
17764;BME280;22245;52.832;13.816;2023-07-31T12:02:05;100491.13;;;19.49;81.53
17764;BME280;22245;52.832;13.816;2023-07-31T12:05:27;100483.25;;;19.55;80.15
17764;BME280;22245;52.832;13.816;2023-07-31T12:08:48;100482.47;;;19.61;80.28
17764;BME280;22245;52.832;13.816;2023-07-31T12:12:19;100476.97;;;19.76;81.57
17764;BME280;22245;52.832;13.816;2023-07-31T12:15:43;100472.47;;;19.90;79.40
17764;BME280;22245;52.832;13.816;2023-07-31T12:19:07;100463.81;;;19.94;78.34
17764;BME280;22245;52.832;13.816;2023-07-31T12:22:28;100469.84;;;19.97;77.19
17764;BME280;22245;52.832;13.816;2023-07-31T12:26:00;100467.38;;;20.02;77.89
17764;BME280;22245;52.832;13.816;2023-07-31T12:29:23;100461.75;;;20.03;77.20
17764;BME280;22245;52.832;13.816;2023-07-31T12:32:45;100469.91;;;20.10;76.25
17764;BME280;22245;52.832;13.816;2023-07-31T12:36:09;100455.38;;;20.18;75.17
17764;BME280;22245;52.832;13.816;2023-07-31T12:39:31;100451.22;;;20.22;75.00
17764;BME280;22245;52.832;13.816;2023-07-31T12:42:54;100447.72;;;20.28;75.09
17764;BME280;22245;52.832;13.816;2023-07-31T12:46:18;100455.22;;;20.33;71.65
17764;BME280;22245;52.832;13.816;2023-07-31T12:49:39;100446.72;;;20.36;70.65
17764;BME280;22245;52.832;13.816;2023-07-31T12:53:01;100456.25;;;20.32;70.62
17764;BME280;22245;52.832;13.816;2023-07-31T12:56:23;100462.63;;;20.17;69.75
17764;BME280;22245;52.832;13.816;2023-07-31T12:59:44;100460.28;;;20.01;71.02
17764;BME280;22245;52.832;13.816;2023-07-31T13:03:07;100448.22;;;19.97;71.73
17764;BME280;22245;52.832;13.816;2023-07-31T13:06:29;100454.03;;;20.00;71.70
17764;BME280;22245;52.832;13.816;2023-07-31T13:09:50;100455.28;;;19.98;71.82
17764;BME280;22245;52.832;13.816;2023-07-31T13:13:12;100444.06;;;20.01;71.64
17764;BME280;22245;52.832;13.816;2023-07-31T13:16:34;100447.59;;;20.01;71.94
17764;BME280;22245;52.832;13.816;2023-07-31T13:19:57;100449.91;;;20.04;71.53
17764;BME280;22245;52.832;13.816;2023-07-31T13:23:19;100448.69;;;20.07;72.42
17764;BME280;22245;52.832;13.816;2023-07-31T13:26:40;100461.13;;;20.01;72.24
17764;BME280;22245;52.832;13.816;2023-07-31T13:30:02;100449.88;;;19.98;72.44
17764;BME280;22245;52.832;13.816;2023-07-31T13:33:23;100440.69;;;19.92;71.60
17764;BME280;22245;52.832;13.816;2023-07-31T13:36:58;100441.06;;;19.89;71.81
17764;BME280;22245;52.832;13.816;2023-07-31T13:40:21;100439.03;;;19.91;72.56
17764;BME280;22245;52.832;13.816;2023-07-31T13:43:43;100430.13;;;19.97;73.05
17764;BME280;22245;52.832;13.816;2023-07-31T13:47:05;100422.44;;;20.01;73.85
17764;BME280;22245;52.832;13.816;2023-07-31T13:50:27;100420.00;;;20.13;73.56
17764;BME280;22245;52.832;13.816;2023-07-31T13:53:50;100417.13;;;20.21;72.53
17764;BME280;22245;52.832;13.816;2023-07-31T13:57:12;100422.13;;;20.24;72.40
17764;BME280;22245;52.832;13.816;2023-07-31T14:00:33;100420.84;;;20.27;72.75
17764;BME280;22245;52.832;13.816;2023-07-31T14:03:55;100430.03;;;20.32;73.06
17764;BME280;22245;52.832;13.816;2023-07-31T14:07:17;100417.56;;;20.31;72.77
17764;BME280;22245;52.832;13.816;2023-07-31T14:10:40;100417.38;;;20.39;73.31
17764;BME280;22245;52.832;13.816;2023-07-31T14:14:03;100398.47;;;20.46;72.71
17764;BME280;22245;52.832;13.816;2023-07-31T14:17:25;100397.22;;;20.62;72.96
17764;BME280;22245;52.832;13.816;2023-07-31T14:20:47;100409.31;;;20.66;69.70
17764;BME280;22245;52.832;13.816;2023-07-31T14:24:09;100395.59;;;20.68;70.62
17764;BME280;22245;52.832;13.816;2023-07-31T14:27:32;100384.78;;;20.81;70.70
17764;BME280;22245;52.832;13.816;2023-07-31T14:30:54;100399.38;;;20.80;69.33
17764;BME280;22245;52.832;13.816;2023-07-31T14:34:15;100387.25;;;20.76;70.45
17764;BME280;22245;52.832;13.816;2023-07-31T14:37:38;100377.72;;;20.80;71.10
17764;BME280;22245;52.832;13.816;2023-07-31T14:40:59;100378.75;;;20.86;70.79
17764;BME280;22245;52.832;13.816;2023-07-31T14:44:22;100368.34;;;20.90;70.70
17764;BME280;22245;52.832;13.816;2023-07-31T14:47:44;100369.38;;;20.89;70.81
17764;BME280;22245;52.832;13.816;2023-07-31T14:51:06;100370.22;;;20.89;71.04
17764;BME280;22245;52.832;13.816;2023-07-31T14:54:27;100358.75;;;20.94;71.42
17764;BME280;22245;52.832;13.816;2023-07-31T14:57:49;100370.63;;;21.00;71.02
17764;BME280;22245;52.832;13.816;2023-07-31T15:01:11;100368.53;;;21.08;71.55
17764;BME280;22245;52.832;13.816;2023-07-31T15:04:33;100361.47;;;21.07;71.47
17764;BME280;22245;52.832;13.816;2023-07-31T15:07:54;100360.00;;;21.05;72.90
17764;BME280;22245;52.832;13.816;2023-07-31T15:11:16;100355.00;;;21.08;74.58
17764;BME280;22245;52.832;13.816;2023-07-31T15:14:38;100350.59;;;21.14;74.11
17764;BME280;22245;52.832;13.816;2023-07-31T15:18:02;100345.19;;;21.14;71.92
17764;BME280;22245;52.832;13.816;2023-07-31T15:21:23;100337.06;;;21.14;73.16
17764;BME280;22245;52.832;13.816;2023-07-31T15:24:45;100340.63;;;21.15;73.32
17764;BME280;22245;52.832;13.816;2023-07-31T15:28:06;100335.59;;;21.18;72.66
17764;BME280;22245;52.832;13.816;2023-07-31T15:31:29;100336.03;;;21.22;72.20
17764;BME280;22245;52.832;13.816;2023-07-31T15:34:52;100326.03;;;21.22;71.65
17764;BME280;22245;52.832;13.816;2023-07-31T15:38:14;100314.34;;;21.22;71.16
17764;BME280;22245;52.832;13.816;2023-07-31T15:41:36;100316.44;;;21.20;69.98
17764;BME280;22245;52.832;13.816;2023-07-31T15:44:57;100312.50;;;21.22;70.33
17764;BME280;22245;52.832;13.816;2023-07-31T15:48:19;100309.78;;;21.22;69.53
17764;BME280;22245;52.832;13.816;2023-07-31T15:51:42;100300.63;;;21.23;69.99
17764;BME280;22245;52.832;13.816;2023-07-31T15:55:04;100297.06;;;21.23;68.57
17764;BME280;22245;52.832;13.816;2023-07-31T15:58:27;100303.72;;;21.27;68.94
17764;BME280;22245;52.832;13.816;2023-07-31T16:01:49;100298.91;;;21.29;67.20
17764;BME280;22245;52.832;13.816;2023-07-31T16:05:10;100298.53;;;21.25;67.15
17764;BME280;22245;52.832;13.816;2023-07-31T16:08:33;100298.53;;;21.25;66.71
17764;BME280;22245;52.832;13.816;2023-07-31T16:12:01;100293.94;;;21.26;66.59
17764;BME280;22245;52.832;13.816;2023-07-31T16:15:23;100297.69;;;21.25;66.82
17764;BME280;22245;52.832;13.816;2023-07-31T16:18:45;100293.13;;;21.19;65.96
17764;BME280;22245;52.832;13.816;2023-07-31T16:22:06;100287.28;;;21.15;64.99
17764;BME280;22245;52.832;13.816;2023-07-31T16:25:29;100294.41;;;21.09;65.78
17764;BME280;22245;52.832;13.816;2023-07-31T16:28:50;100296.06;;;21.10;66.37
17764;BME280;22245;52.832;13.816;2023-07-31T16:32:11;100299.81;;;21.09;68.15
17764;BME280;22245;52.832;13.816;2023-07-31T16:35:32;100294.41;;;21.03;68.45
17764;BME280;22245;52.832;13.816;2023-07-31T16:38:54;100307.56;;;20.92;67.74
17764;BME280;22245;52.832;13.816;2023-07-31T16:42:17;100322.31;;;20.76;71.63
17764;BME280;22245;52.832;13.816;2023-07-31T16:45:39;100317.13;;;20.61;73.12
17764;BME280;22245;52.832;13.816;2023-07-31T16:49:00;100310.25;;;20.52;74.16
17764;BME280;22245;52.832;13.816;2023-07-31T16:52:24;100297.75;;;20.44;75.94
17764;BME280;22245;52.832;13.816;2023-07-31T16:55:45;100301.50;;;20.36;78.14
17764;BME280;22245;52.832;13.816;2023-07-31T16:59:08;100312.69;;;20.27;78.63
17764;BME280;22245;52.832;13.816;2023-07-31T17:02:30;100297.31;;;20.20;80.47
17764;BME280;22245;52.832;13.816;2023-07-31T17:05:52;100298.13;;;20.14;81.48
17764;BME280;22245;52.832;13.816;2023-07-31T17:09:14;100278.56;;;20.05;81.50
17764;BME280;22245;52.832;13.816;2023-07-31T17:12:37;100284.59;;;20.01;83.78
17764;BME280;22245;52.832;13.816;2023-07-31T17:16:00;100277.31;;;19.94;85.03
17764;BME280;22245;52.832;13.816;2023-07-31T17:19:22;100277.88;;;19.90;86.47
17764;BME280;22245;52.832;13.816;2023-07-31T17:22:43;100272.28;;;19.85;86.82
17764;BME280;22245;52.832;13.816;2023-07-31T17:26:08;100271.66;;;19.83;87.17
17764;BME280;22245;52.832;13.816;2023-07-31T17:29:32;100283.91;;;19.78;88.33